Main page
METAR-TAF:

METAR-TAF

Airports :

Santander Airport

Santander, Spain

latitude: 43-26N, longitude: 003-49W, elevation: 6 m

Current weather observation

The report was made 36 minutes ago, at 20:00 UTC
Wind 4 kt from the East, varying between Northeast and Southeast
Temperature 7°C
Humidity 66%
Pressure 1035 hPa
Visibility 10 km or more
Overcast at a height of 4900 ft

METAR: LEXJ 212000Z 09004KT 050V130 9999 OVC049 07/01 Q1035

Time: 21:36 (20:36 UTC)

Forecast

The report was made 6 hours and 36 minutes ago, at 14:00 UTC
Forecast valid from 21 at 15 UTC to 22 at 15 UTC
Wind 7 kt from the East
Visibility 10 km or more
Scattered clouds at a height of 4000 ft
Probability 40% :
Temporary
from 21 at 15 UTC to 21 at 18 UTC
Wind 15 kt from the East/Northeast with gusts up to 25 kt

TAF: LEXJ 211400Z 2115/2215 10007KT 9999 SCT040 TX09/2215Z TN01/2205Z PROB40 TEMPO 2115/2118 06015G25KT

Weather observations and forecasts of more than 4000 airports (METAR and TAF reports).

The available stations are represented by yellow and red dots on the map.

Hover mouse over dot to see the name of the station.

Then click to see weather observations and forecasts.

To change the map : click on the green buttons with a black cross to zoom in, on the green button with a dash to zoom out, or on the green arrows for adjacent maps.


METAR-TAF: